Ruth, Nevada
Current Conditions -  °F | °C
As of 4:53 PM on Tuesday 21 Oct 2014 (Local Time) from KELY Reporting Station
Clear Clear  
Wind Chill: 60°   Ceiling: Unl
Heat Index: 60°   Visibility: 10mi
Dew Point:   Wind: 6mph
Humidity: 13%   Direction: 330°NNW
Pressure: 30.04"   Gusts: NA
Location:  39.28°N, 114.99°W
Report Text: KELY 212353Z AUTO 33005KT 10SM CLR 16/M13 A3004 RMK AO2 SLP102 T01561128 10167 20144 52002
Loading
Personal Weather Stations






























Interactive Weather Map
Tropical Storm Tracking
New forecast layout! Learn more

10-Day Weather Forecast

Advertisements
Track Severe Weather on mobile